KMTJ/MTJ METAR and TAF weather

Enter ICAO airport designator
Station Type Date Time Source
KMTJ METAR 2020/08/14 01:53 UTC NOAA

KMTJ 140153Z AUTO 27003KT 10SM CLR 29/03 A3013 RMK AO2 SLP113 T02890028


Station Type Date Time Source
KMTJ Decoded METAR 2020/08/14 01:53 UTC NOAA

MONTROSE REGIONAL AIRPORT, CO, United States (KMTJ) 38-30N 107-54W 1750M
Aug 13, 2020 - 09:53 PM EDT / 2020.08.14 0153 UTC
Wind: from the W (270 degrees) at 3 MPH (3 KT):0
Visibility: 10 mile(s):0
Sky conditions: clear
Temperature: 84.0 F (28.9 C)
Dew Point: 37.0 F (2.8 C)
Relative Humidity: 18%
Pressure (altimeter): 30.13 in. Hg (1020 hPa)
ob: KMTJ 140153Z AUTO 27003KT 10SM CLR 29/03 A3013 RMK AO2 SLP113 T02890028
cycle: 2

Station Type Date Time Source
KMTJ TAF 2020/08/13 18:40 UTC NOAA

TAF KMTJ 131738Z 1318/1418 35006KT P6SM FEW150
FM131900 28012G20KT P6SM SCT150
FM140300 14008KT P6SM SCT250

Example: see airport list